createdAt,value
2019-04-05T00:05:56.330Z,99659.17
2019-04-05T00:10:59.770Z,99670.39
2019-04-05T00:16:03.313Z,99677.73
2019-04-05T00:21:06.801Z,99664.80
2019-04-05T00:26:10.246Z,99666.59
2019-04-05T00:31:13.702Z,99659.25
2019-04-05T00:36:17.211Z,99668.83
2019-04-05T00:41:21.329Z,99669.70
2019-04-05T00:46:24.718Z,99679.67
2019-04-05T00:51:28.224Z,99698.13
2019-04-05T00:56:31.682Z,99698.20
2019-04-05T01:01:35.606Z,99693.41
2019-04-05T01:06:39.193Z,99712.81
2019-04-05T01:11:42.730Z,99713.59
2019-04-05T01:16:46.211Z,99713.63
2019-04-05T01:21:49.735Z,99731.30
2019-04-05T01:26:55.400Z,99737.77
2019-04-05T01:31:58.847Z,99739.46
2019-04-05T01:37:02.441Z,99750.73
2019-04-05T01:42:06.963Z,99743.83
2019-04-05T01:47:10.478Z,99743.78
2019-04-05T01:52:14.120Z,99741.29
2019-04-05T01:57:17.579Z,99745.12
2019-04-05T02:02:21.035Z,99746.87
2019-04-05T02:07:24.642Z,99749.52
2019-04-05T02:12:28.196Z,99754.73
2019-04-05T02:17:31.675Z,99752.15
2019-04-05T02:22:35.213Z,99753.03
2019-04-05T02:27:38.682Z,99745.69
2019-04-05T02:32:42.224Z,99751.31
2019-04-05T02:37:45.834Z,99755.20
2019-04-05T02:42:52.649Z,99757.81
2019-04-05T02:47:59.161Z,99756.56
2019-04-05T02:53:05.654Z,99756.13
2019-04-05T02:58:10.721Z,99745.39
2019-04-05T03:03:15.483Z,99737.27
2019-04-05T03:08:19.246Z,99730.81
2019-04-05T03:13:46.478Z,99735.09
2019-04-05T03:18:52.936Z,99736.05
2019-04-05T03:23:59.424Z,99732.90
2019-04-05T03:29:05.914Z,99732.16
2019-04-05T03:34:09.629Z,99731.71
2019-04-05T03:39:13.483Z,99723.94
2019-04-05T03:44:16.957Z,99731.36
2019-04-05T03:49:20.602Z,99732.22
2019-04-05T03:54:24.040Z,99735.67
2019-04-05T03:59:27.621Z,99748.12
2019-04-05T04:04:31.396Z,99749.41
2019-04-05T04:09:35.107Z,99744.18
2019-04-05T04:14:39.266Z,99746.77
2019-04-05T04:19:42.770Z,99751.53
2019-04-05T04:24:46.768Z,99760.19
2019-04-05T04:29:50.334Z,99756.27
2019-04-05T04:34:54.612Z,99765.76
2019-04-05T04:39:58.202Z,99765.70
2019-04-05T04:45:11.811Z,99765.17
2019-04-05T04:50:09.512Z,99769.47
2019-04-05T04:55:13.117Z,99779.44
2019-04-05T05:00:18.537Z,99780.25
2019-04-05T05:05:22.837Z,99780.27
2019-04-05T05:10:26.713Z,99784.55
2019-04-05T05:15:30.593Z,99791.98
2019-04-05T05:20:34.356Z,99794.96
2019-04-05T05:25:37.848Z,99803.11
2019-04-05T05:30:41.343Z,99795.73
2019-04-05T05:35:44.883Z,99797.01
2019-04-05T05:40:48.312Z,99796.95
2019-04-05T05:45:51.873Z,99804.31
2019-04-05T05:50:55.660Z,99801.44
2019-04-05T05:55:59.085Z,99807.09
2019-04-05T06:01:02.524Z,99820.34
2019-04-05T06:06:06.006Z,99831.52
2019-04-05T06:11:09.437Z,99831.97
2019-04-05T06:16:12.920Z,99831.91
2019-04-05T06:21:16.347Z,99824.54
2019-04-05T06:26:19.789Z,99826.14
2019-04-05T06:31:23.227Z,99827.22
2019-04-05T06:36:26.658Z,99830.14
2019-04-05T06:41:30.091Z,99846.04
2019-04-05T06:46:33.523Z,99849.95
2019-04-05T06:51:36.972Z,99834.40
2019-04-05T06:56:40.395Z,99836.91
2019-04-05T07:01:43.818Z,99837.75
2019-04-05T07:06:47.296Z,99846.56
2019-04-05T07:11:50.718Z,99847.34
2019-04-05T07:16:54.249Z,99851.16
2019-04-05T07:21:57.752Z,99861.02
2019-04-05T07:27:01.333Z,99860.60
2019-04-05T07:32:05.317Z,99858.01
2019-04-05T07:37:08.739Z,99862.89
2019-04-05T07:42:12.168Z,99849.84
2019-04-05T07:47:15.600Z,99855.47
2019-04-05T07:52:19.036Z,99840.59
2019-04-05T07:57:22.459Z,99835.37
2019-04-05T08:02:25.971Z,99847.92
2019-04-05T08:07:32.460Z,99852.98
2019-04-05T08:12:37.420Z,99850.90
2019-04-05T08:17:40.855Z,99860.89
2019-04-05T08:22:44.269Z,99857.89
2019-04-05T08:27:47.684Z,99859.44
2019-04-05T08:32:51.103Z,99858.52
2019-04-05T08:37:54.559Z,99862.63
2019-04-05T08:42:57.989Z,99859.65
2019-04-05T08:48:01.565Z,99856.45
2019-04-05T08:53:05.373Z,99861.52
2019-04-05T08:58:08.793Z,99861.36
2019-04-05T09:03:12.268Z,99863.13
2019-04-05T09:08:16.002Z,99862.00
2019-04-05T09:13:19.437Z,99861.86
2019-04-05T09:18:22.867Z,99862.77
2019-04-05T09:23:26.304Z,99872.27
2019-04-05T09:28:29.769Z,99879.80
2019-04-05T09:33:33.216Z,99882.45
2019-04-05T09:38:36.655Z,99875.06
2019-04-05T09:43:40.173Z,99886.98
2019-04-05T09:48:43.610Z,99888.03
2019-04-05T09:53:47.063Z,99880.94
2019-04-05T09:58:50.468Z,99875.09
2019-04-05T10:03:53.925Z,99871.10
2019-04-05T10:08:57.341Z,99870.24
2019-04-05T10:14:00.776Z,99868.32
2019-04-05T10:19:04.626Z,99874.43
2019-04-05T10:24:08.037Z,99873.07
2019-04-05T10:29:11.465Z,99870.92
2019-04-05T10:34:15.440Z,99870.28
2019-04-05T10:39:18.877Z,99874.27
2019-04-05T10:44:22.311Z,99871.65
2019-04-05T10:49:25.823Z,99870.03
2019-04-05T10:54:29.292Z,99861.70
2019-04-05T10:59:32.807Z,99860.30
2019-04-05T11:04:36.250Z,99863.49
2019-04-05T11:09:39.748Z,99854.56
2019-04-05T11:14:43.489Z,99857.58
2019-04-05T11:19:46.929Z,99869.45
2019-04-05T11:24:50.390Z,99870.83
2019-04-05T11:29:53.844Z,99874.18
2019-04-05T11:34:57.292Z,99875.48
2019-04-05T11:40:00.830Z,99877.95
2019-04-05T11:45:05.698Z,99875.45
2019-04-05T11:50:11.393Z,99875.80
2019-04-05T11:55:18.222Z,99874.46
2019-04-05T12:00:23.400Z,99876.14
2019-04-05T12:05:27.374Z,99888.08
2019-04-05T12:10:32.131Z,99875.48
2019-04-05T12:15:36.436Z,99868.52
2019-04-05T12:20:48.324Z,99861.51
2019-04-05T12:25:45.149Z,99866.98
2019-04-05T12:30:49.468Z,99866.89
2019-04-05T12:35:56.318Z,99870.25
2019-04-05T12:40:59.019Z,99862.59
2019-04-05T12:46:04.898Z,99861.30
2019-04-05T12:51:08.811Z,99857.67
2019-04-05T12:56:12.265Z,99860.96
2019-04-05T13:01:15.784Z,99859.91
2019-04-05T13:06:19.892Z,99851.77
2019-04-05T13:11:26.686Z,99843.59
2019-04-05T13:16:29.596Z,99849.37
2019-04-05T13:21:33.301Z,99858.74
2019-04-05T13:26:37.155Z,99849.06
2019-04-05T13:31:40.762Z,99842.81
2019-04-05T13:36:44.209Z,99834.88
2019-04-05T13:41:47.656Z,99845.98
2019-04-05T13:46:51.073Z,99835.77
2019-04-05T13:51:54.514Z,99830.44
2019-04-05T13:56:58.185Z,99824.00
2019-04-05T14:02:06.283Z,99814.88
2019-04-05T14:07:07.219Z,99814.91
2019-04-05T14:12:10.665Z,99811.80
2019-04-05T14:17:14.363Z,99816.80
2019-04-05T14:22:17.867Z,99798.92
2019-04-05T14:27:21.326Z,99798.75
2019-04-05T14:32:24.776Z,99793.96
2019-04-05T14:37:28.303Z,99788.77
2019-04-05T14:42:31.732Z,99786.95
2019-04-05T14:47:35.204Z,99784.19
2019-04-05T14:52:38.908Z,99782.59
2019-04-05T14:57:42.331Z,99779.41
2019-04-05T15:02:45.776Z,99771.20
2019-04-05T15:07:51.054Z,99770.28
2019-04-05T15:12:54.391Z,99761.94
2019-04-05T15:17:57.912Z,99758.56
2019-04-05T15:23:01.430Z,99769.98
2019-04-05T15:28:04.870Z,99773.52
2019-04-05T15:33:08.373Z,99771.88
2019-04-05T15:38:11.895Z,99781.69
2019-04-05T15:43:15.335Z,99779.03
2019-04-05T15:48:20.492Z,99784.42
2019-04-05T15:53:23.937Z,99777.45
2019-04-05T15:58:27.383Z,99776.67
2019-04-05T16:03:32.289Z,99776.27
2019-04-05T16:08:36.131Z,99780.19
2019-04-05T16:13:39.571Z,99784.66
2019-04-05T16:18:43.893Z,99786.80
2019-04-05T16:23:47.383Z,99790.58
2019-04-05T16:28:50.823Z,99792.66
2019-04-05T16:33:54.237Z,99790.81
2019-04-05T16:38:57.782Z,99798.23
2019-04-05T16:44:01.209Z,99799.53
2019-04-05T16:49:04.676Z,99801.89
2019-04-05T16:54:08.163Z,99801.59
2019-04-05T16:59:11.657Z,99803.77
2019-04-05T17:04:15.967Z,99813.34
2019-04-05T17:09:19.423Z,99806.75
2019-04-05T17:14:23.374Z,99813.65
2019-04-05T17:19:26.837Z,99815.80
2019-04-05T17:24:30.278Z,99813.30
2019-04-05T17:29:33.693Z,99816.41
2019-04-05T17:34:37.108Z,99796.94
2019-04-05T17:39:40.557Z,99798.52
2019-04-05T17:44:44.016Z,99800.77
2019-04-05T17:49:47.768Z,99807.63
2019-04-05T17:54:51.264Z,99802.41
2019-04-05T17:59:54.862Z,99802.92
2019-04-05T18:04:58.842Z,99820.72
2019-04-05T18:10:02.272Z,99824.65
2019-04-05T18:15:06.363Z,99824.61
2019-04-05T18:20:10.266Z,99828.67
2019-04-05T18:25:14.369Z,99827.81
2019-04-05T18:30:19.156Z,99823.48
2019-04-05T18:35:22.597Z,99832.98
2019-04-05T18:40:26.036Z,99841.97
2019-04-05T18:45:30.160Z,99846.72
2019-04-05T18:50:33.596Z,99857.48
2019-04-05T18:55:37.149Z,99861.13
2019-04-05T19:00:40.593Z,99865.84
2019-04-05T19:05:44.023Z,99863.66
2019-04-05T19:10:47.485Z,99863.22
2019-04-05T19:15:50.933Z,99866.64
2019-04-05T19:20:54.402Z,99878.27
2019-04-05T19:25:57.848Z,99871.42
2019-04-05T19:51:22.120Z,99874.49
2019-04-05T19:56:25.562Z,99870.13
2019-04-05T20:01:29.033Z,99871.83
2019-04-05T20:06:32.499Z,99876.17
2019-04-05T20:11:35.924Z,99881.40
2019-04-05T20:16:39.361Z,99874.46
2019-04-05T20:21:42.799Z,99872.31
2019-04-05T20:26:46.280Z,99869.27
2019-04-05T20:31:49.983Z,99870.56
2019-04-05T20:36:53.750Z,99870.95
2019-04-05T20:41:57.189Z,99867.53
2019-04-05T20:47:00.677Z,99854.92
2019-04-05T20:52:04.403Z,99841.94
2019-04-05T20:57:07.816Z,99843.68
2019-04-05T21:02:11.250Z,99834.05
2019-04-05T21:07:14.670Z,99830.06
2019-04-05T21:12:18.092Z,99826.73
2019-04-05T21:17:21.528Z,99815.11
2019-04-05T21:22:24.992Z,99811.19
2019-04-05T21:27:28.454Z,99818.56
2019-04-05T21:32:31.990Z,99814.79
2019-04-05T21:37:35.480Z,99825.46
2019-04-05T21:42:38.913Z,99839.27
2019-04-05T21:47:42.369Z,99854.84
2019-04-05T21:52:45.824Z,99857.88
2019-04-05T21:57:49.316Z,99854.81
2019-04-05T22:02:52.786Z,99856.14
2019-04-05T22:07:56.251Z,99833.64
2019-04-05T22:13:04.648Z,99831.86
2019-04-05T22:18:08.138Z,99816.26
2019-04-05T22:23:12.090Z,99807.68
2019-04-05T22:28:15.538Z,99817.62
2019-04-05T22:33:19.015Z,99832.37
2019-04-05T22:38:22.494Z,99828.47
2019-04-05T22:43:25.962Z,99830.63
2019-04-05T22:48:29.419Z,99834.55
2019-04-05T22:53:32.892Z,99837.20
2019-04-05T22:58:36.364Z,99838.44
2019-04-05T23:03:39.814Z,99840.19
2019-04-05T23:08:43.673Z,99843.30
2019-04-05T23:13:47.133Z,99837.67
2019-04-05T23:18:50.585Z,99840.33
2019-04-05T23:23:54.059Z,99833.87
2019-04-05T23:28:57.557Z,99841.09
2019-04-05T23:34:01.063Z,99847.97
2019-04-05T23:39:05.606Z,99852.01
2019-04-05T23:44:09.119Z,99850.66
2019-04-05T23:49:12.580Z,99850.56
2019-04-05T23:54:16.046Z,99836.70
2019-04-05T23:59:19.538Z,99833.66
